• Join FlightAware (Why Join?)
  • Login
  • US Flag 
12:38AM EDT


 

Airport Tracker/Info


-or-


 

Live Flight TrackerFlight Track Log ✈ ASQ6151 ✈ 14-May-2013 ✈ KORD - KPIA

Flight Track Log - Related Links

Times and Time Zones

All times are in EDT time to prevent confusion due to time zone crossing. See the ASQ6151 flight status page for this flight to view local times or setup timezone preferences in your user account.

Time Position Orientation Groundspeed Altitude Reporting Facility
EDT Latitude Longitude Course Direction KTS MPH feet Rate Location/Type
10:29PM 41.9500 -87.9333 270° West 168 193 3,800  Level Chicago TRACON
10:30PM 41.9500 -88.0167 270° West 232 267 5,900 2,580 Climbing Chicago TRACON
10:31PM 41.9500 -88.1000 270° West 237 273 9,000 2,700 Climbing Chicago TRACON
10:32PM 41.9667 -88.3760 270° West  Level FlightAware Approximate
10:32PM 41.9436 -88.1408 258° West 234 269 10,000  Level Chicago Center
10:33PM 41.9667 -88.4950 270° West  Level FlightAware Approximate
10:33PM 41.9389 -88.2389 266° West 254 292 12,800  Level Chicago Center
10:34PM 41.9667 -88.6140 270° West  Level FlightAware Approximate
10:34PM 41.9303 -88.3628 265° West 278 320 13,100  Level Chicago Center
10:35PM 41.9228 -88.4653 264° West 281 323 13,100  Level Chicago Center
10:36PM 41.8756 -88.5467 232° Southwest 280 322 13,100  Level Chicago Center
10:37PM 41.8267 -88.6289 231° Southwest 282 325 13,100  Level Chicago Center
10:38PM 41.7728 -88.7222 232° Southwest 318 366 13,100  Level Chicago Center
10:39PM 41.7125 -88.8283 233° Southwest 357 411 13,100  Level Chicago Center
10:40PM 41.6053 -88.9197 213° Southwest 384 442 13,100  Level Chicago Center
10:41PM 41.5178 -88.9933 212° Southwest 378 435 13,100  Level Chicago Center
10:42PM 41.4292 -89.0686 213° Southwest 380 437 13,100 -480 Level Chicago Center
10:43PM 41.3403 -89.1406 211° Southwest 379 436 12,200 -1,320 Descending Chicago Center
10:44PM 41.2444 -89.2192 212° Southwest 368 423 10,500 -1,080 Descending Chicago Center
10:45PM 41.1658 -89.2853 212° Southwest 343 395 10,100 -240 Descending Chicago Center
10:46PM 41.0925 -89.3461 212° Southwest 317 365 10,100 -60 Level Chicago Center
10:47PM 41.0181 -89.4064 211° Southwest 315 362 10,000 -660 Descending Chicago Center
10:48PM 40.9558 -89.4581 212° Southwest 272 313 8,800 -1,800 Descending Chicago Center
10:49PM 40.8964 -89.5064 212° Southwest 254 292 6,400 -1,380 Descending Chicago Center
10:50PM 40.8544 -89.5608 224° Southwest 224 258 6,000 -840 Descending Chicago Center
10:51PM 40.8139 -89.5872 206° Southwest 184 212 4,800 -1,320 Descending Chicago Center
10:52PM 40.7661 -89.5875 180° South 177 204 3,300 -1,500 Descending Chicago Center